createdAt,value
2023-08-08T00:00:07.880Z,100586.56640625
2023-08-08T00:01:07.977Z,100585.32421875
2023-08-08T00:01:37.832Z,100590.97265625
2023-08-08T00:02:37.911Z,100586.00390625
2023-08-08T00:03:07.861Z,100587.5234375
2023-08-08T00:03:37.899Z,100586.46484375
2023-08-08T00:04:07.910Z,100588.9921875
2023-08-08T00:04:37.916Z,100586.81640625
2023-08-08T00:05:07.664Z,100585.39453125
2023-08-08T00:05:37.817Z,100582.87890625
2023-08-08T00:06:07.716Z,100583.46875
2023-08-08T00:06:40.361Z,100583.36328125
2023-08-08T00:07:07.747Z,100589.12109375
2023-08-08T00:08:07.806Z,100582.33984375
2023-08-08T00:08:37.885Z,100583.55078125
2023-08-08T00:09:08.208Z,100584.265625
2023-08-08T00:09:37.682Z,100580.1640625
2023-08-08T00:10:07.780Z,100580.6328125
2023-08-08T00:10:37.728Z,100577.5234375
2023-08-08T00:11:07.792Z,100577.19140625
2023-08-08T00:11:37.819Z,100579.40234375
2023-08-08T00:12:07.724Z,100578.70703125
2023-08-08T00:12:37.784Z,100579.015625
2023-08-08T00:13:07.888Z,100578.58984375
2023-08-08T00:13:37.915Z,100577.65234375
2023-08-08T00:14:07.827Z,100576.0078125
2023-08-08T00:14:37.823Z,100578.03125
2023-08-08T00:15:07.762Z,100576.5
2023-08-08T00:16:07.947Z,100574.97265625
2023-08-08T00:16:38.009Z,100578.0625
2023-08-08T00:17:08.378Z,100576.171875
2023-08-08T00:18:07.948Z,100574.08984375
2023-08-08T00:18:37.902Z,100574.86328125
2023-08-08T00:19:07.764Z,100576.65625
2023-08-08T00:19:37.684Z,100574.53515625
2023-08-08T00:20:07.626Z,100580.234375
2023-08-08T00:21:07.734Z,100578.12109375
2023-08-08T00:21:37.853Z,100580.6484375
2023-08-08T00:22:10.431Z,100579.82421875
2023-08-08T00:22:38.042Z,100578.72265625
2023-08-08T00:23:37.717Z,100579.70703125
2023-08-08T00:24:07.926Z,100581.765625
2023-08-08T00:24:37.765Z,100580.9453125
2023-08-08T00:25:07.781Z,100579.7421875
2023-08-08T00:25:37.695Z,100579.35546875
2023-08-08T00:26:07.840Z,100580.5078125
2023-08-08T00:26:37.804Z,100582.9765625
2023-08-08T00:27:07.793Z,100581.94140625
2023-08-08T00:27:37.965Z,100582.09375
2023-08-08T00:28:07.885Z,100584.85546875
2023-08-08T00:28:37.785Z,100585.62109375
2023-08-08T00:29:07.879Z,100585.1015625
2023-08-08T00:29:37.861Z,100587.27734375
2023-08-08T00:30:07.770Z,100585.171875
2023-08-08T00:30:37.755Z,100585.078125
2023-08-08T00:31:07.931Z,100580.96484375
2023-08-08T00:32:07.934Z,100585.67578125
2023-08-08T00:32:37.959Z,100581.29296875
2023-08-08T00:33:07.987Z,100585.40625
2023-08-08T00:33:37.876Z,100586.05078125
2023-08-08T00:34:08.309Z,100585.3828125
2023-08-08T00:34:37.826Z,100584.90234375
2023-08-08T00:35:08.291Z,100584.41796875
2023-08-08T00:35:37.763Z,100584.73828125
2023-08-08T00:36:07.742Z,100584.33984375
2023-08-08T00:36:38.169Z,100582.09375
2023-08-08T00:37:08.255Z,100582.9765625
2023-08-08T00:37:40.559Z,100583.84765625
2023-08-08T00:38:07.765Z,100584.0078125
2023-08-08T00:39:07.833Z,100581.484375
2023-08-08T00:39:37.718Z,100579.61328125
2023-08-08T00:40:07.770Z,100582.3515625
2023-08-08T00:40:37.660Z,100581.05078125
2023-08-08T00:41:07.690Z,100579.68359375
2023-08-08T00:41:37.900Z,100579.12890625
2023-08-08T00:42:07.830Z,100577.546875
2023-08-08T00:42:37.892Z,100577.875
2023-08-08T00:43:07.814Z,100578.47265625
2023-08-08T00:44:07.680Z,100575.06640625
2023-08-08T00:44:37.832Z,100576.109375
2023-08-08T00:45:07.635Z,100575.37109375
2023-08-08T00:45:37.700Z,100573.50390625
2023-08-08T00:46:08.025Z,100572.1640625
2023-08-08T00:46:38.023Z,100575.640625
2023-08-08T00:47:38.093Z,100577.75390625
2023-08-08T00:48:07.799Z,100574.83984375
2023-08-08T00:48:37.759Z,100571.453125
2023-08-08T00:49:07.749Z,100573.078125
2023-08-08T00:49:37.760Z,100572.984375
2023-08-08T00:50:07.689Z,100570.7421875
2023-08-08T00:50:37.967Z,100568.83203125
2023-08-08T00:51:07.941Z,100570.08984375
2023-08-08T00:51:37.796Z,100572.66796875
2023-08-08T00:52:08.266Z,100570.46875
2023-08-08T00:52:37.860Z,100571.41015625
2023-08-08T00:53:10.558Z,100572.15234375
2023-08-08T00:53:38.263Z,100572.10546875
2023-08-08T00:54:37.879Z,100571.77734375
2023-08-08T00:55:07.785Z,100575.171875
2023-08-08T00:55:38.168Z,100576.875
2023-08-08T00:56:08.007Z,100571.7421875
2023-08-08T00:57:07.839Z,100569.296875
2023-08-08T00:57:37.855Z,100567.8125
2023-08-08T00:58:07.803Z,100568.0390625
2023-08-08T00:58:37.907Z,100565.1796875
2023-08-08T00:59:07.959Z,100565.51171875
2023-08-08T00:59:37.598Z,100563.984375
2023-08-08T01:00:07.862Z,100563.546875
2023-08-08T01:00:37.892Z,100561.80859375
2023-08-08T01:01:07.807Z,100560.203125
2023-08-08T01:01:37.770Z,100561.12890625
2023-08-08T01:02:07.796Z,100562.36328125
2023-08-08T01:02:37.974Z,100560.73046875
2023-08-08T01:03:07.876Z,100562.7734375
2023-08-08T01:03:40.549Z,100557.83984375
2023-08-08T01:04:07.913Z,100559.765625
2023-08-08T01:05:07.976Z,100559.96484375
2023-08-08T01:05:37.805Z,100560.40625
2023-08-08T01:06:07.862Z,100558.70703125
2023-08-08T01:06:37.932Z,100559.73828125
2023-08-08T01:07:37.915Z,100561.06640625
2023-08-08T01:08:07.706Z,100558.5859375
2023-08-08T01:08:37.893Z,100557.3984375
2023-08-08T01:09:09.008Z,100558.46484375
2023-08-08T01:09:37.945Z,100557.5390625
2023-08-08T01:10:38.060Z,100558.6015625
2023-08-08T01:11:07.934Z,100559.90234375
2023-08-08T01:11:38.925Z,100554.47265625
2023-08-08T01:12:07.867Z,100553.2265625
2023-08-08T01:13:08.078Z,100557.6875
2023-08-08T01:13:38.163Z,100554.85546875
2023-08-08T01:14:07.912Z,100551.609375
2023-08-08T01:14:37.920Z,100554.921875
2023-08-08T01:15:07.763Z,100553.67578125
2023-08-08T01:15:38.227Z,100556.75
2023-08-08T01:16:08.032Z,100557.04296875
2023-08-08T01:16:37.923Z,100556.9140625
2023-08-08T01:17:08.574Z,100557.42578125
2023-08-08T01:17:38.048Z,100553.48828125
2023-08-08T01:18:38.087Z,100559.38671875
2023-08-08T01:19:11.481Z,100557.67578125
2023-08-08T01:19:38.013Z,100552.8828125
2023-08-08T01:20:37.656Z,100559.25390625
2023-08-08T01:21:37.844Z,100562.18359375
2023-08-08T01:22:07.767Z,100558.44921875
2023-08-08T01:22:37.834Z,100557.94921875
2023-08-08T01:23:07.771Z,100559.07421875
2023-08-08T01:23:39.306Z,100556.1640625
2023-08-08T01:24:08.310Z,100555.96484375
2023-08-08T01:24:39.349Z,100556.07421875
2023-08-08T01:25:07.813Z,100557.87109375
2023-08-08T01:25:39.090Z,100552.28125
2023-08-08T01:26:08.466Z,100553.37109375
2023-08-08T01:26:39.482Z,100554.8515625
2023-08-08T01:27:07.904Z,100553.16015625
2023-08-08T01:28:07.906Z,100554.96875
2023-08-08T01:28:38.365Z,100554.62890625
2023-08-08T01:29:10.593Z,100558.75390625
2023-08-08T01:29:38.989Z,100555.2890625
2023-08-08T01:30:38.799Z,100556.359375
2023-08-08T01:31:08.797Z,100556.69140625
2023-08-08T01:32:08.393Z,100555.421875
2023-08-08T01:32:37.965Z,100552.6875
2023-08-08T01:33:37.939Z,100557.4453125
2023-08-08T01:34:07.766Z,100555.19921875
2023-08-08T01:34:40.529Z,100557.83984375
2023-08-08T01:35:07.877Z,100556.31640625
2023-08-08T01:36:07.755Z,100552.05078125
2023-08-08T01:36:37.918Z,100550.8046875
2023-08-08T01:37:07.599Z,100552.78515625
2023-08-08T01:37:38.484Z,100553.87890625
2023-08-08T01:38:07.779Z,100554.5703125
2023-08-08T01:39:07.825Z,100547.96875
2023-08-08T01:39:38.106Z,100547.9296875
2023-08-08T01:40:07.856Z,100549.12890625
2023-08-08T01:40:38.045Z,100544.20703125
2023-08-08T01:41:38.261Z,100545.87890625
2023-08-08T01:42:07.882Z,100544.41796875
2023-08-08T01:43:07.744Z,100546.0390625
2023-08-08T01:43:37.939Z,100544.85546875
2023-08-08T01:44:07.815Z,100545.671875
2023-08-08T01:44:38.095Z,100546.359375
2023-08-08T01:45:07.786Z,100542.41796875
2023-08-08T01:45:37.760Z,100544.85546875
2023-08-08T01:46:08.098Z,100539.4609375
2023-08-08T01:46:38.421Z,100543.6796875
2023-08-08T01:47:38.173Z,100541.96875
2023-08-08T01:48:07.981Z,100539.6484375
2023-08-08T01:48:37.901Z,100536.96484375
2023-08-08T01:49:07.853Z,100538.63671875
2023-08-08T01:49:38.081Z,100539.23046875
2023-08-08T01:50:10.607Z,100541.72265625
2023-08-08T01:50:37.902Z,100538.39453125
2023-08-08T01:51:38.106Z,100540.3125
2023-08-08T01:52:07.679Z,100540.6015625
2023-08-08T01:52:37.892Z,100539.51953125
2023-08-08T01:53:07.793Z,100543.140625
2023-08-08T01:53:38.072Z,100541.91015625
2023-08-08T01:54:07.855Z,100540.4140625
2023-08-08T01:54:37.875Z,100545.85546875
2023-08-08T01:55:11.592Z,100546.97265625
2023-08-08T01:55:37.793Z,100543.50390625
2023-08-08T01:56:38.134Z,100543.359375
2023-08-08T01:57:07.727Z,100546.05859375
2023-08-08T01:58:07.843Z,100542.00390625
2023-08-08T01:58:37.851Z,100542.33203125
2023-08-08T01:59:07.750Z,100541.90234375
2023-08-08T01:59:37.765Z,100540.4375
2023-08-08T02:00:07.835Z,100538.1953125
2023-08-08T02:00:38.341Z,100540.8203125
2023-08-08T02:01:09.985Z,100537.4765625
2023-08-08T02:01:38.390Z,100541.4765625
2023-08-08T02:02:38.567Z,100543.55859375
2023-08-08T02:03:07.982Z,100541.77734375
2023-08-08T02:04:08.942Z,100542.140625
2023-08-08T02:04:39.011Z,100539.84765625
2023-08-08T02:05:40.351Z,100542.4921875
2023-08-08T02:06:07.751Z,100540.28125
2023-08-08T02:07:07.911Z,100540.734375
2023-08-08T02:07:38.157Z,100541.40625
2023-08-08T02:08:07.782Z,100539.75390625
2023-08-08T02:08:38.069Z,100540.91015625
2023-08-08T02:09:08.044Z,100543.77734375
2023-08-08T02:09:38.141Z,100543.1640625
2023-08-08T02:10:08.519Z,100542.08984375
2023-08-08T02:11:08.027Z,100542.52734375
2023-08-08T02:11:37.838Z,100542.8125
2023-08-08T02:12:07.934Z,100543.48828125
2023-08-08T02:12:37.828Z,100542.671875
2023-08-08T02:13:07.875Z,100541.09765625
2023-08-08T02:13:37.870Z,100538.05859375
2023-08-08T02:14:07.883Z,100539.37109375
2023-08-08T02:14:38.931Z,100536.98828125
2023-08-08T02:15:07.989Z,100540.390625
2023-08-08T02:15:37.657Z,100532.578125
2023-08-08T02:16:07.841Z,100537.83203125
2023-08-08T02:16:37.851Z,100536.3359375
2023-08-08T02:17:07.833Z,100534.6953125
2023-08-08T02:17:37.953Z,100529.66796875
2023-08-08T02:18:07.885Z,100530.0078125
2023-08-08T02:18:37.855Z,100538.48828125
2023-08-08T02:19:07.967Z,100532.91796875
2023-08-08T02:20:07.849Z,100540.2265625
2023-08-08T02:20:38.038Z,100535.859375
2023-08-08T02:21:10.877Z,100537.61328125
2023-08-08T02:21:38.041Z,100535.31640625
2023-08-08T02:22:37.785Z,100533.8515625
2023-08-08T02:23:07.757Z,100536.16015625
2023-08-08T02:24:08.253Z,100535.32421875
2023-08-08T02:24:37.882Z,100534.56640625
2023-08-08T02:25:08.036Z,100537.04296875
2023-08-08T02:25:37.882Z,100534.15234375
2023-08-08T02:26:37.760Z,100535.4453125
2023-08-08T02:27:07.809Z,100539.3828125
2023-08-08T02:27:37.872Z,100532.60546875
2023-08-08T02:28:07.816Z,100536.76953125
2023-08-08T02:28:37.931Z,100540.5
2023-08-08T02:29:07.757Z,100539.0625
2023-08-08T02:29:37.922Z,100535.35546875
2023-08-08T02:30:07.764Z,100536.125
2023-08-08T02:31:08.088Z,100534.58203125
2023-08-08T02:31:37.996Z,100533.73046875
2023-08-08T02:32:07.884Z,100532.08984375
2023-08-08T02:32:38.020Z,100531.8671875
2023-08-08T02:33:08.183Z,100534.90234375
2023-08-08T02:33:37.905Z,100536.94921875
2023-08-08T02:34:07.817Z,100534.1015625
2023-08-08T02:34:37.929Z,100532.84375
2023-08-08T02:35:08.962Z,100531.375
2023-08-08T02:35:37.885Z,100536.45703125
2023-08-08T02:36:40.489Z,100532.6640625
2023-08-08T02:37:07.843Z,100530
2023-08-08T02:38:08.014Z,100527.88671875
2023-08-08T02:38:37.860Z,100526.08203125
2023-08-08T02:39:07.774Z,100526.3359375
2023-08-08T02:39:37.640Z,100527.00390625
2023-08-08T02:40:07.986Z,100524.7109375
2023-08-08T02:40:37.697Z,100520.6796875
2023-08-08T02:41:37.853Z,100525.3203125
2023-08-08T02:42:07.780Z,100523.578125
2023-08-08T02:42:38.111Z,100525.28515625
2023-08-08T02:43:07.929Z,100525.91796875
2023-08-08T02:43:37.711Z,100527.78515625
2023-08-08T02:44:07.664Z,100527.0234375
2023-08-08T02:44:37.750Z,100526.5234375
2023-08-08T02:45:07.781Z,100528.21875
2023-08-08T02:45:37.728Z,100527.5078125
2023-08-08T02:46:07.941Z,100525.48828125
2023-08-08T02:46:38.064Z,100527.3125
2023-08-08T02:47:08.043Z,100524.859375
2023-08-08T02:47:37.884Z,100527.3515625
2023-08-08T02:48:07.952Z,100527.1875
2023-08-08T02:48:37.937Z,100527.56640625
2023-08-08T02:49:07.855Z,100528.28125
2023-08-08T02:49:37.976Z,100529.2109375
2023-08-08T02:50:07.834Z,100523.59765625
2023-08-08T02:51:07.886Z,100523.25
2023-08-08T02:51:39.191Z,100523.46875
2023-08-08T02:52:10.401Z,100521.39453125
2023-08-08T02:53:07.814Z,100525.38671875
2023-08-08T02:53:37.861Z,100526.4765625
2023-08-08T02:54:07.945Z,100526.42578125
2023-08-08T02:54:37.919Z,100526.15625
2023-08-08T02:55:07.899Z,100530.15625
2023-08-08T02:56:07.778Z,100524.32421875
2023-08-08T02:56:37.863Z,100527.7421875
2023-08-08T02:57:07.776Z,100525.5625
2023-08-08T02:57:37.871Z,100527.3671875
2023-08-08T02:58:07.852Z,100528.40234375
2023-08-08T02:59:07.730Z,100526.76953125
2023-08-08T02:59:37.814Z,100526.1171875
2023-08-08T03:00:07.814Z,100525.1875
2023-08-08T03:00:37.786Z,100527.71484375
2023-08-08T03:01:07.945Z,100531.70703125
2023-08-08T03:01:37.848Z,100528.2421875
2023-08-08T03:02:07.739Z,100528.2578125
2023-08-08T03:02:40.540Z,100529.0546875
2023-08-08T03:03:07.892Z,100531.1875
2023-08-08T03:04:07.838Z,100533.34765625
2023-08-08T03:04:37.882Z,100529.6875
2023-08-08T03:05:07.824Z,100532.53515625
2023-08-08T03:05:37.713Z,100531.05859375
2023-08-08T03:06:07.894Z,100535.921875
2023-08-08T03:07:07.824Z,100534.46484375
2023-08-08T03:07:37.812Z,100533.73046875
2023-08-08T03:08:07.868Z,100537.05859375
2023-08-08T03:08:37.812Z,100534.9765625
2023-08-08T03:09:08.184Z,100535.73046875
2023-08-08T03:09:37.732Z,100538.08203125
2023-08-08T03:10:07.834Z,100537.09375
2023-08-08T03:10:38.011Z,100539.0234375
2023-08-08T03:11:07.944Z,100540.171875
2023-08-08T03:11:37.888Z,100541.58984375
2023-08-08T03:12:07.677Z,100540.7109375
2023-08-08T03:13:10.327Z,100539.72265625
2023-08-08T03:13:37.845Z,100543.21875
2023-08-08T03:14:37.818Z,100544.703125
2023-08-08T03:15:08.007Z,100542.578125
2023-08-08T03:15:37.723Z,100546.828125
2023-08-08T03:16:08.104Z,100544.42578125
2023-08-08T03:16:38.204Z,100543.01171875
2023-08-08T03:17:07.866Z,100543.44921875
2023-08-08T03:17:37.852Z,100542.84765625
2023-08-08T03:18:08.186Z,100542.95703125
2023-08-08T03:18:37.771Z,100542.515625
2023-08-08T03:19:07.720Z,100539.296875
2023-08-08T03:19:37.896Z,100540.890625
2023-08-08T03:20:07.943Z,100538.57421875
2023-08-08T03:20:37.812Z,100537.8125
2023-08-08T03:21:07.798Z,100536.00390625
2023-08-08T03:21:37.852Z,100537.375
2023-08-08T03:22:07.885Z,100536.56640625
2023-08-08T03:22:37.785Z,100539.62890625
2023-08-08T03:23:07.877Z,100539.4140625
2023-08-08T03:24:07.894Z,100538.1015625
2023-08-08T03:24:37.757Z,100539.40625
2023-08-08T03:25:07.768Z,100536.734375
2023-08-08T03:25:37.716Z,100536.5703125
2023-08-08T03:26:07.803Z,100536.57421875
2023-08-08T03:26:37.977Z,100537.83984375
2023-08-08T03:27:37.693Z,100539.05078125
2023-08-08T03:28:07.735Z,100540.74609375
2023-08-08T03:28:40.454Z,100542.828125
2023-08-08T03:29:07.940Z,100541.89453125
2023-08-08T03:30:07.787Z,100539.7578125
2023-08-08T03:30:37.766Z,100543.63671875
2023-08-08T03:31:07.985Z,100545.05078125
2023-08-08T03:32:08.058Z,100545
2023-08-08T03:32:37.944Z,100545.43359375
2023-08-08T03:33:37.915Z,100546.68359375
2023-08-08T03:34:07.966Z,100543.6796875
2023-08-08T03:34:37.848Z,100544.27734375
2023-08-08T03:35:07.689Z,100547.1171875
2023-08-08T03:36:07.712Z,100540.72265625
2023-08-08T03:36:37.738Z,100539.71484375
2023-08-08T03:37:07.847Z,100540.37109375
2023-08-08T03:37:37.863Z,100540.94140625
2023-08-08T03:38:37.892Z,100542.34765625
2023-08-08T03:39:10.523Z,100543.87890625
2023-08-08T03:39:37.708Z,100544.4140625
2023-08-08T03:40:37.811Z,100544.71484375
2023-08-08T03:41:07.726Z,100543.93359375
2023-08-08T03:41:37.812Z,100545.88671875
2023-08-08T03:42:08.043Z,100544.21875
2023-08-08T03:42:38.438Z,100545.5625
2023-08-08T03:44:08.065Z,100541.5078125
2023-08-08T03:44:37.859Z,100541.84765625
2023-08-08T03:45:07.746Z,100541.859375
2023-08-08T03:45:37.727Z,100541.453125
2023-08-08T03:46:37.901Z,100540.20703125
2023-08-08T03:47:18.637Z,100539.0625
2023-08-08T03:47:37.799Z,100538.5859375
2023-08-08T03:48:07.915Z,100537.33203125
2023-08-08T03:48:37.915Z,100542.84765625
2023-08-08T03:49:07.840Z,100536.34375
2023-08-08T03:49:40.551Z,100537.26953125
2023-08-08T03:50:09.110Z,100536.5703125
2023-08-08T03:51:07.825Z,100534
2023-08-08T03:51:37.910Z,100532.8046875
2023-08-08T03:52:07.907Z,100534.43359375
2023-08-08T03:52:37.711Z,100534.25390625
2023-08-08T03:53:07.913Z,100531.484375
2023-08-08T03:53:37.745Z,100533.03125
2023-08-08T03:54:37.625Z,100533.53125
2023-08-08T03:55:07.794Z,100534.484375
2023-08-08T03:55:37.795Z,100531.19921875
2023-08-08T03:56:07.967Z,100531.5234375
2023-08-08T03:56:37.918Z,100537.2109375
2023-08-08T03:57:07.918Z,100534.42578125
2023-08-08T03:57:38.589Z,100534.62890625
2023-08-08T03:58:07.695Z,100533.7421875
2023-08-08T03:59:07.810Z,100533.5703125
2023-08-08T03:59:37.695Z,100532.83984375
2023-08-08T04:00:10.480Z,100532.2265625
2023-08-08T04:00:37.688Z,100531.32421875
2023-08-08T04:01:37.698Z,100532.49609375
2023-08-08T04:02:07.809Z,100529.82421875
2023-08-08T04:02:37.831Z,100527.87109375
2023-08-08T04:03:07.926Z,100528.4296875
2023-08-08T04:03:37.914Z,100529.15234375
2023-08-08T04:04:08.075Z,100526.296875
2023-08-08T04:04:38.028Z,100523.1953125
2023-08-08T04:05:07.639Z,100524.55078125
2023-08-08T04:05:37.998Z,100522.0390625
2023-08-08T04:06:07.913Z,100524.44140625
2023-08-08T04:06:37.900Z,100526.625
2023-08-08T04:07:07.718Z,100523.75390625
2023-08-08T04:07:38.036Z,100527.53125
2023-08-08T04:08:07.843Z,100526.203125
2023-08-08T04:08:37.985Z,100525.421875
2023-08-08T04:09:07.727Z,100528.05078125
2023-08-08T04:09:37.799Z,100525.42578125
2023-08-08T04:10:07.790Z,100527.2265625
2023-08-08T04:10:40.358Z,100527.828125
2023-08-08T04:11:07.915Z,100526.84765625
2023-08-08T04:12:07.765Z,100531.1640625
2023-08-08T04:12:37.905Z,100528.94140625
2023-08-08T04:13:07.950Z,100526.62109375
2023-08-08T04:13:38.018Z,100530.1875
2023-08-08T04:14:07.719Z,100526.6484375
2023-08-08T04:14:38.423Z,100523.6796875
2023-08-08T04:15:07.924Z,100522.87109375
2023-08-08T04:15:38.459Z,100527.40234375
2023-08-08T04:16:07.819Z,100528.26953125
2023-08-08T04:17:08.248Z,100527.234375
2023-08-08T04:17:37.997Z,100527.94921875
2023-08-08T04:18:07.801Z,100530.0703125
2023-08-08T04:18:38.008Z,100526.0546875
2023-08-08T04:19:37.787Z,100526.31640625
2023-08-08T04:20:08.200Z,100527.76953125
2023-08-08T04:20:37.587Z,100525.6953125
2023-08-08T04:21:10.603Z,100529.57421875
2023-08-08T04:21:37.637Z,100528.7265625
2023-08-08T04:22:37.809Z,100532.87109375
2023-08-08T04:23:07.759Z,100530.1171875
2023-08-08T04:23:37.680Z,100528.1953125
2023-08-08T04:24:07.857Z,100528.8359375
2023-08-08T04:24:37.999Z,100531.6953125
2023-08-08T04:25:07.865Z,100527.4296875
2023-08-08T04:25:37.798Z,100529.171875
2023-08-08T04:26:07.875Z,100529.0234375
2023-08-08T04:26:37.811Z,100530.65625
2023-08-08T04:27:07.833Z,100531.36328125
2023-08-08T04:27:37.836Z,100532.28125
2023-08-08T04:28:07.841Z,100529.734375
2023-08-08T04:28:37.848Z,100530.6015625
2023-08-08T04:29:08.016Z,100533.93359375
2023-08-08T04:29:38.100Z,100531.578125
2023-08-08T04:30:07.804Z,100532.71484375
2023-08-08T04:30:37.701Z,100534.0234375
2023-08-08T04:31:08.096Z,100532.26953125
2023-08-08T04:31:37.752Z,100535.12890625
2023-08-08T04:32:07.830Z,100537.52734375
2023-08-08T04:32:38.116Z,100533.0859375
2023-08-08T04:33:37.887Z,100535.828125
2023-08-08T04:34:08.084Z,100537.46875
2023-08-08T04:34:37.602Z,100535.91015625
2023-08-08T04:35:07.763Z,100535.80078125
2023-08-08T04:35:37.863Z,100539.9296875
2023-08-08T04:36:07.762Z,100534.90234375
2023-08-08T04:36:40.498Z,100534.89453125
2023-08-08T04:37:08.899Z,100536.921875
2023-08-08T04:38:08.287Z,100533.578125
2023-08-08T04:38:37.823Z,100535.09765625
2023-08-08T04:39:08.922Z,100538.10546875
2023-08-08T04:39:37.714Z,100538.05078125
2023-08-08T04:40:39.290Z,100539.68359375
2023-08-08T04:41:07.858Z,100540
2023-08-08T04:41:38.292Z,100538.08984375
2023-08-08T04:42:07.737Z,100539.09765625
2023-08-08T04:43:07.862Z,100538.03125
2023-08-08T04:43:38.093Z,100539.94921875
2023-08-08T04:44:07.982Z,100540.73046875
2023-08-08T04:44:37.808Z,100539.03515625
2023-08-08T04:45:08.099Z,100539.52734375
2023-08-08T04:45:37.709Z,100536.7890625
2023-08-08T04:46:08.091Z,100535.16015625
2023-08-08T04:46:37.827Z,100535.76171875
2023-08-08T04:47:10.413Z,100536.46484375
2023-08-08T04:48:37.854Z,100533.1484375
2023-08-08T04:49:37.887Z,100535.59375
2023-08-08T04:50:07.649Z,100532.75
2023-08-08T04:50:37.675Z,100532.0234375
2023-08-08T04:51:07.810Z,100537.77734375
2023-08-08T04:51:37.821Z,100534.1796875
2023-08-08T04:52:07.800Z,100535.53515625
2023-08-08T04:52:37.738Z,100536.6171875
2023-08-08T04:53:07.939Z,100537.55859375
2023-08-08T04:53:37.999Z,100534.890625
2023-08-08T04:54:07.709Z,100533.94921875
2023-08-08T04:54:37.987Z,100535.04296875
2023-08-08T04:55:07.640Z,100533.1796875
2023-08-08T04:56:07.756Z,100533.9375
2023-08-08T04:56:37.863Z,100536.44140625
2023-08-08T04:57:07.936Z,100538.078125
2023-08-08T04:57:37.872Z,100541.44140625
2023-08-08T04:58:07.743Z,100539.23046875
2023-08-08T04:58:37.831Z,100540.15234375
2023-08-08T04:59:07.906Z,100537.50390625
2023-08-08T05:00:07.816Z,100535.77734375
2023-08-08T05:00:37.775Z,100535.95703125
2023-08-08T05:01:08.076Z,100535.59375
2023-08-08T05:01:37.906Z,100535.87109375
2023-08-08T05:02:07.800Z,100531.63671875
2023-08-08T05:02:40.678Z,100529.5
2023-08-08T05:03:07.855Z,100533.203125
2023-08-08T05:04:07.907Z,100527.78125
2023-08-08T05:04:37.755Z,100531.5078125
2023-08-08T05:05:07.766Z,100529.14453125
2023-08-08T05:05:37.970Z,100530.5234375
2023-08-08T05:06:07.794Z,100530.84375
2023-08-08T05:06:37.963Z,100528.81640625
2023-08-08T05:07:07.875Z,100528.87890625
2023-08-08T05:07:38.265Z,100524
2023-08-08T05:08:07.901Z,100527.17578125
2023-08-08T05:08:37.767Z,100522.29296875
2023-08-08T05:09:07.873Z,100530.8671875
2023-08-08T05:10:07.861Z,100521.51953125
2023-08-08T05:10:37.700Z,100521.19140625
2023-08-08T05:11:07.891Z,100523.4375
2023-08-08T05:11:38.121Z,100522.51171875
2023-08-08T05:12:07.774Z,100523.6484375
2023-08-08T05:13:10.498Z,100521.6796875
2023-08-08T05:13:37.741Z,100524.04296875
2023-08-08T05:14:37.744Z,100522.53515625
2023-08-08T05:15:07.713Z,100522.71484375
2023-08-08T05:15:37.890Z,100526.16015625
2023-08-08T05:16:08.114Z,100525.66015625
2023-08-08T05:16:37.951Z,100525.21484375
2023-08-08T05:17:07.718Z,100521.92578125
2023-08-08T05:17:37.976Z,100523.39453125
2023-08-08T05:18:07.820Z,100523.98828125
2023-08-08T05:18:37.868Z,100522.55859375
2023-08-08T05:19:07.790Z,100525.80859375
2023-08-08T05:20:07.721Z,100523.9921875
2023-08-08T05:20:37.917Z,100523.984375
2023-08-08T05:21:07.866Z,100526.3359375
2023-08-08T05:21:37.887Z,100525.1328125
2023-08-08T05:22:07.651Z,100523.578125
2023-08-08T05:22:37.971Z,100523.6015625
2023-08-08T05:23:07.840Z,100522.86328125
2023-08-08T05:23:37.756Z,100523.89453125
2023-08-08T05:24:07.816Z,100521.23046875
2023-08-08T05:24:38.041Z,100521.86328125
2023-08-08T05:25:07.945Z,100520.09765625
2023-08-08T05:25:37.793Z,100521.3359375
2023-08-08T05:26:07.896Z,100521.26953125
2023-08-08T05:26:37.847Z,100519.734375
2023-08-08T05:27:38.018Z,100521.59765625
2023-08-08T05:28:07.916Z,100516.8515625
2023-08-08T05:28:40.527Z,100519.0859375
2023-08-08T05:29:07.689Z,100521.0625
2023-08-08T05:30:07.994Z,100518.59375
2023-08-08T05:30:37.868Z,100517.65625
2023-08-08T05:31:09.353Z,100518.7890625
2023-08-08T05:32:08.168Z,100517.79296875
2023-08-08T05:32:37.830Z,100518.24609375
2023-08-08T05:33:37.709Z,100515.21484375
2023-08-08T05:34:09.385Z,100509.45703125
2023-08-08T05:34:37.946Z,100509.95703125
2023-08-08T05:35:37.986Z,100509.546875
2023-08-08T05:36:07.768Z,100510.7265625
2023-08-08T05:36:38.171Z,100508.07421875
2023-08-08T05:37:16.685Z,100509.859375
2023-08-08T05:37:37.875Z,100512.36328125
2023-08-08T05:38:07.738Z,100515.58203125
2023-08-08T05:38:37.827Z,100512.9921875
2023-08-08T05:39:10.352Z,100513.24609375
2023-08-08T05:39:37.807Z,100512.1796875
2023-08-08T05:40:38.005Z,100513.26953125
2023-08-08T05:41:07.734Z,100512.41796875
2023-08-08T05:41:37.931Z,100513.1484375
2023-08-08T05:42:07.879Z,100515.01171875
2023-08-08T05:42:37.776Z,100515.58984375
2023-08-08T05:43:07.808Z,100515.13671875
2023-08-08T05:43:37.968Z,100517.1015625
2023-08-08T05:44:08.005Z,100516.33203125
2023-08-08T05:44:38.144Z,100516.3359375
2023-08-08T05:45:07.742Z,100516.296875